sensor_id;sensor_type;location;lat;lon;timestamp;P1;durP1;ratioP1;P2;durP2;ratioP2
22843;SDS011;11588;51.178;4.852;2024-01-30T00:00:27;13.95;;;8.77;;
22843;SDS011;11588;51.178;4.852;2024-01-30T00:02:55;14.55;;;8.45;;
22843;SDS011;11588;51.178;4.852;2024-01-30T00:05:22;14.07;;;8.68;;
22843;SDS011;11588;51.178;4.852;2024-01-30T00:07:48;13.35;;;8.77;;
22843;SDS011;11588;51.178;4.852;2024-01-30T00:10:15;12.57;;;8.65;;
22843;SDS011;11588;51.178;4.852;2024-01-30T00:12:42;12.70;;;8.27;;
22843;SDS011;11588;51.178;4.852;2024-01-30T00:15:08;11.02;;;8.23;;
22843;SDS011;11588;51.178;4.852;2024-01-30T00:17:36;13.48;;;8.88;;
22843;SDS011;11588;51.178;4.852;2024-01-30T00:20:03;12.05;;;8.80;;
22843;SDS011;11588;51.178;4.852;2024-01-30T00:22:36;14.90;;;9.00;;
22843;SDS011;11588;51.178;4.852;2024-01-30T00:25:02;14.52;;;8.32;;
22843;SDS011;11588;51.178;4.852;2024-01-30T00:27:29;12.38;;;8.18;;
22843;SDS011;11588;51.178;4.852;2024-01-30T00:29:56;13.07;;;8.93;;
22843;SDS011;11588;51.178;4.852;2024-01-30T00:32:22;13.05;;;7.80;;
22843;SDS011;11588;51.178;4.852;2024-01-30T00:34:49;10.70;;;7.95;;
22843;SDS011;11588;51.178;4.852;2024-01-30T00:37:16;12.50;;;8.13;;
22843;SDS011;11588;51.178;4.852;2024-01-30T00:39:43;12.93;;;8.48;;
22843;SDS011;11588;51.178;4.852;2024-01-30T00:42:09;12.73;;;8.38;;
22843;SDS011;11588;51.178;4.852;2024-01-30T00:44:36;12.82;;;8.38;;
22843;SDS011;11588;51.178;4.852;2024-01-30T00:47:05;11.30;;;7.63;;
22843;SDS011;11588;51.178;4.852;2024-01-30T00:49:32;11.65;;;7.35;;
22843;SDS011;11588;51.178;4.852;2024-01-30T00:51:58;12.32;;;7.38;;
22843;SDS011;11588;51.178;4.852;2024-01-30T00:54:25;13.00;;;8.70;;
22843;SDS011;11588;51.178;4.852;2024-01-30T00:56:52;12.10;;;8.27;;
22843;SDS011;11588;51.178;4.852;2024-01-30T00:59:18;9.93;;;7.97;;
22843;SDS011;11588;51.178;4.852;2024-01-30T01:01:45;11.07;;;8.40;;
22843;SDS011;11588;51.178;4.852;2024-01-30T01:04:11;13.30;;;8.48;;
22843;SDS011;11588;51.178;4.852;2024-01-30T01:06:38;11.80;;;7.95;;
22843;SDS011;11588;51.178;4.852;2024-01-30T01:09:05;11.43;;;8.25;;
22843;SDS011;11588;51.178;4.852;2024-01-30T01:11:31;12.98;;;7.72;;
22843;SDS011;11588;51.178;4.852;2024-01-30T01:13:58;11.57;;;8.18;;
22843;SDS011;11588;51.178;4.852;2024-01-30T01:16:25;11.43;;;7.57;;
22843;SDS011;11588;51.178;4.852;2024-01-30T01:18:51;13.70;;;8.70;;
22843;SDS011;11588;51.178;4.852;2024-01-30T01:21:18;11.80;;;8.00;;
22843;SDS011;11588;51.178;4.852;2024-01-30T01:23:45;13.27;;;8.45;;
22843;SDS011;11588;51.178;4.852;2024-01-30T01:26:11;15.43;;;8.63;;
22843;SDS011;11588;51.178;4.852;2024-01-30T01:28:40;14.32;;;8.75;;
22843;SDS011;11588;51.178;4.852;2024-01-30T01:31:06;12.43;;;8.18;;
22843;SDS011;11588;51.178;4.852;2024-01-30T01:33:33;10.68;;;8.18;;
22843;SDS011;11588;51.178;4.852;2024-01-30T01:36:00;13.75;;;7.72;;
22843;SDS011;11588;51.178;4.852;2024-01-30T01:38:28;10.40;;;7.80;;
22843;SDS011;11588;51.178;4.852;2024-01-30T01:40:55;14.05;;;8.90;;
22843;SDS011;11588;51.178;4.852;2024-01-30T01:43:22;13.57;;;8.80;;
22843;SDS011;11588;51.178;4.852;2024-01-30T01:45:48;12.15;;;8.82;;
22843;SDS011;11588;51.178;4.852;2024-01-30T01:48:15;13.70;;;8.40;;
22843;SDS011;11588;51.178;4.852;2024-01-30T01:50:42;13.48;;;8.50;;
22843;SDS011;11588;51.178;4.852;2024-01-30T01:53:09;15.60;;;9.10;;
22843;SDS011;11588;51.178;4.852;2024-01-30T01:55:36;13.32;;;8.63;;
22843;SDS011;11588;51.178;4.852;2024-01-30T01:58:03;15.00;;;9.07;;
22843;SDS011;11588;51.178;4.852;2024-01-30T02:00:30;12.65;;;8.75;;
22843;SDS011;11588;51.178;4.852;2024-01-30T02:02:57;15.93;;;8.45;;
22843;SDS011;11588;51.178;4.852;2024-01-30T02:05:25;11.40;;;9.05;;
22843;SDS011;11588;51.178;4.852;2024-01-30T02:07:52;12.88;;;8.50;;
22843;SDS011;11588;51.178;4.852;2024-01-30T02:10:20;12.52;;;8.15;;
22843;SDS011;11588;51.178;4.852;2024-01-30T02:12:46;13.38;;;8.82;;
22843;SDS011;11588;51.178;4.852;2024-01-30T02:15:13;13.70;;;9.20;;
22843;SDS011;11588;51.178;4.852;2024-01-30T02:17:40;11.50;;;8.48;;
22843;SDS011;11588;51.178;4.852;2024-01-30T02:20:07;14.50;;;8.77;;
22843;SDS011;11588;51.178;4.852;2024-01-30T02:22:34;14.18;;;9.07;;
22843;SDS011;11588;51.178;4.852;2024-01-30T02:25:02;14.13;;;9.23;;
22843;SDS011;11588;51.178;4.852;2024-01-30T02:27:28;18.65;;;9.00;;
22843;SDS011;11588;51.178;4.852;2024-01-30T02:29:55;11.95;;;8.75;;
22843;SDS011;11588;51.178;4.852;2024-01-30T02:32:22;15.30;;;8.70;;
22843;SDS011;11588;51.178;4.852;2024-01-30T02:34:48;11.75;;;8.40;;
22843;SDS011;11588;51.178;4.852;2024-01-30T02:37:16;11.77;;;8.25;;
22843;SDS011;11588;51.178;4.852;2024-01-30T02:39:43;12.32;;;8.02;;
22843;SDS011;11588;51.178;4.852;2024-01-30T02:42:09;13.48;;;8.77;;
22843;SDS011;11588;51.178;4.852;2024-01-30T02:44:36;12.48;;;8.43;;
22843;SDS011;11588;51.178;4.852;2024-01-30T02:47:04;11.70;;;8.10;;
22843;SDS011;11588;51.178;4.852;2024-01-30T02:49:29;15.07;;;8.88;;
22843;SDS011;11588;51.178;4.852;2024-01-30T02:51:56;13.85;;;8.95;;
22843;SDS011;11588;51.178;4.852;2024-01-30T02:54:23;13.00;;;7.95;;
22843;SDS011;11588;51.178;4.852;2024-01-30T02:56:49;15.35;;;8.98;;
22843;SDS011;11588;51.178;4.852;2024-01-30T02:59:16;13.13;;;8.50;;
22843;SDS011;11588;51.178;4.852;2024-01-30T03:01:43;16.00;;;8.48;;
22843;SDS011;11588;51.178;4.852;2024-01-30T03:04:10;10.18;;;7.90;;
22843;SDS011;11588;51.178;4.852;2024-01-30T03:06:37;15.90;;;9.10;;
22843;SDS011;11588;51.178;4.852;2024-01-30T03:09:04;13.32;;;8.55;;
22843;SDS011;11588;51.178;4.852;2024-01-30T03:11:31;13.25;;;9.20;;
22843;SDS011;11588;51.178;4.852;2024-01-30T03:13:57;13.88;;;9.00;;
22843;SDS011;11588;51.178;4.852;2024-01-30T03:16:24;11.70;;;8.52;;
22843;SDS011;11588;51.178;4.852;2024-01-30T03:18:49;13.55;;;8.55;;
22843;SDS011;11588;51.178;4.852;2024-01-30T03:21:16;12.38;;;7.70;;
22843;SDS011;11588;51.178;4.852;2024-01-30T03:23:42;13.18;;;8.27;;
22843;SDS011;11588;51.178;4.852;2024-01-30T03:26:09;14.02;;;9.07;;
22843;SDS011;11588;51.178;4.852;2024-01-30T03:28:37;12.35;;;7.65;;
22843;SDS011;11588;51.178;4.852;2024-01-30T03:31:03;12.95;;;8.82;;
22843;SDS011;11588;51.178;4.852;2024-01-30T03:33:30;14.57;;;8.80;;
22843;SDS011;11588;51.178;4.852;2024-01-30T03:35:57;11.30;;;8.68;;
22843;SDS011;11588;51.178;4.852;2024-01-30T03:38:23;10.63;;;8.05;;
22843;SDS011;11588;51.178;4.852;2024-01-30T03:40:50;13.60;;;8.45;;
22843;SDS011;11588;51.178;4.852;2024-01-30T03:43:16;11.27;;;8.25;;
22843;SDS011;11588;51.178;4.852;2024-01-30T03:45:43;14.77;;;8.77;;
22843;SDS011;11588;51.178;4.852;2024-01-30T03:48:10;10.90;;;8.00;;
22843;SDS011;11588;51.178;4.852;2024-01-30T03:50:41;12.07;;;7.20;;
22843;SDS011;11588;51.178;4.852;2024-01-30T03:53:06;13.43;;;8.38;;
22843;SDS011;11588;51.178;4.852;2024-01-30T03:55:32;11.25;;;8.02;;
22843;SDS011;11588;51.178;4.852;2024-01-30T03:57:59;12.57;;;8.18;;
22843;SDS011;11588;51.178;4.852;2024-01-30T04:00:25;11.68;;;7.97;;
22843;SDS011;11588;51.178;4.852;2024-01-30T04:02:53;11.68;;;8.20;;
22843;SDS011;11588;51.178;4.852;2024-01-30T04:05:19;11.98;;;8.30;;
22843;SDS011;11588;51.178;4.852;2024-01-30T04:07:45;14.38;;;7.97;;
22843;SDS011;11588;51.178;4.852;2024-01-30T04:10:12;14.60;;;8.52;;
22843;SDS011;11588;51.178;4.852;2024-01-30T04:12:39;14.57;;;8.50;;
22843;SDS011;11588;51.178;4.852;2024-01-30T04:15:05;13.18;;;7.95;;
22843;SDS011;11588;51.178;4.852;2024-01-30T04:17:32;12.50;;;8.32;;
22843;SDS011;11588;51.178;4.852;2024-01-30T04:19:59;10.75;;;8.70;;
22843;SDS011;11588;51.178;4.852;2024-01-30T04:22:25;14.15;;;8.75;;
22843;SDS011;11588;51.178;4.852;2024-01-30T04:24:52;11.80;;;7.88;;
22843;SDS011;11588;51.178;4.852;2024-01-30T04:27:19;13.52;;;7.78;;
22843;SDS011;11588;51.178;4.852;2024-01-30T04:29:45;14.63;;;8.23;;
22843;SDS011;11588;51.178;4.852;2024-01-30T04:32:13;14.07;;;8.80;;
22843;SDS011;11588;51.178;4.852;2024-01-30T04:34:40;12.32;;;8.27;;
22843;SDS011;11588;51.178;4.852;2024-01-30T04:37:07;13.25;;;8.10;;
22843;SDS011;11588;51.178;4.852;2024-01-30T04:39:33;12.43;;;7.55;;
22843;SDS011;11588;51.178;4.852;2024-01-30T04:42:00;13.95;;;8.50;;
22843;SDS011;11588;51.178;4.852;2024-01-30T04:44:27;12.65;;;8.43;;
22843;SDS011;11588;51.178;4.852;2024-01-30T04:46:54;11.30;;;7.70;;
22843;SDS011;11588;51.178;4.852;2024-01-30T04:49:21;13.50;;;8.13;;
22843;SDS011;11588;51.178;4.852;2024-01-30T04:51:46;15.18;;;9.10;;
22843;SDS011;11588;51.178;4.852;2024-01-30T04:54:11;17.42;;;8.63;;
22843;SDS011;11588;51.178;4.852;2024-01-30T04:56:37;15.95;;;8.10;;
22843;SDS011;11588;51.178;4.852;2024-01-30T04:59:05;13.05;;;8.40;;
22843;SDS011;11588;51.178;4.852;2024-01-30T05:01:31;16.65;;;8.60;;
22843;SDS011;11588;51.178;4.852;2024-01-30T05:03:58;11.15;;;7.63;;
22843;SDS011;11588;51.178;4.852;2024-01-30T05:06:25;14.43;;;8.02;;
22843;SDS011;11588;51.178;4.852;2024-01-30T05:08:52;12.05;;;8.32;;
22843;SDS011;11588;51.178;4.852;2024-01-30T05:11:19;12.90;;;8.05;;
22843;SDS011;11588;51.178;4.852;2024-01-30T05:13:45;15.98;;;8.82;;
22843;SDS011;11588;51.178;4.852;2024-01-30T05:16:12;15.48;;;9.10;;
22843;SDS011;11588;51.178;4.852;2024-01-30T05:18:39;12.50;;;9.05;;
22843;SDS011;11588;51.178;4.852;2024-01-30T05:21:05;10.60;;;7.93;;
22843;SDS011;11588;51.178;4.852;2024-01-30T05:23:32;12.02;;;7.88;;
22843;SDS011;11588;51.178;4.852;2024-01-30T05:25:59;12.32;;;7.72;;
22843;SDS011;11588;51.178;4.852;2024-01-30T05:28:27;12.32;;;8.55;;
22843;SDS011;11588;51.178;4.852;2024-01-30T05:30:54;12.07;;;7.85;;
22843;SDS011;11588;51.178;4.852;2024-01-30T05:33:20;14.13;;;7.72;;
22843;SDS011;11588;51.178;4.852;2024-01-30T05:35:46;15.13;;;8.60;;
22843;SDS011;11588;51.178;4.852;2024-01-30T05:38:13;16.30;;;8.30;;
22843;SDS011;11588;51.178;4.852;2024-01-30T05:40:40;13.43;;;7.82;;
22843;SDS011;11588;51.178;4.852;2024-01-30T05:43:06;13.57;;;7.90;;
22843;SDS011;11588;51.178;4.852;2024-01-30T05:45:34;13.57;;;8.50;;
22843;SDS011;11588;51.178;4.852;2024-01-30T05:48:02;14.25;;;8.70;;
22843;SDS011;11588;51.178;4.852;2024-01-30T05:50:28;11.73;;;8.20;;
22843;SDS011;11588;51.178;4.852;2024-01-30T05:52:55;12.73;;;8.02;;
22843;SDS011;11588;51.178;4.852;2024-01-30T05:55:21;15.70;;;9.57;;
22843;SDS011;11588;51.178;4.852;2024-01-30T05:57:48;14.70;;;8.27;;
22843;SDS011;11588;51.178;4.852;2024-01-30T06:00:15;15.07;;;8.32;;
22843;SDS011;11588;51.178;4.852;2024-01-30T06:02:41;11.77;;;8.15;;
22843;SDS011;11588;51.178;4.852;2024-01-30T06:05:08;14.48;;;9.15;;
22843;SDS011;11588;51.178;4.852;2024-01-30T06:07:35;16.30;;;9.63;;
22843;SDS011;11588;51.178;4.852;2024-01-30T06:10:01;17.58;;;9.25;;
22843;SDS011;11588;51.178;4.852;2024-01-30T06:12:29;17.35;;;9.13;;
22843;SDS011;11588;51.178;4.852;2024-01-30T06:14:55;12.50;;;8.50;;
22843;SDS011;11588;51.178;4.852;2024-01-30T06:17:23;13.82;;;8.65;;
22843;SDS011;11588;51.178;4.852;2024-01-30T06:19:50;14.38;;;8.70;;
22843;SDS011;11588;51.178;4.852;2024-01-30T06:22:16;15.43;;;9.10;;
22843;SDS011;11588;51.178;4.852;2024-01-30T06:24:43;16.10;;;8.93;;
22843;SDS011;11588;51.178;4.852;2024-01-30T06:27:11;16.13;;;9.23;;
22843;SDS011;11588;51.178;4.852;2024-01-30T06:29:38;14.07;;;8.80;;
22843;SDS011;11588;51.178;4.852;2024-01-30T06:32:04;18.23;;;9.48;;
22843;SDS011;11588;51.178;4.852;2024-01-30T06:34:31;16.15;;;9.13;;
22843;SDS011;11588;51.178;4.852;2024-01-30T06:36:58;16.60;;;8.60;;
22843;SDS011;11588;51.178;4.852;2024-01-30T06:39:24;18.85;;;8.90;;
22843;SDS011;11588;51.178;4.852;2024-01-30T06:41:51;16.65;;;8.57;;
22843;SDS011;11588;51.178;4.852;2024-01-30T06:44:18;15.57;;;8.93;;
22843;SDS011;11588;51.178;4.852;2024-01-30T06:46:44;15.50;;;9.05;;
22843;SDS011;11588;51.178;4.852;2024-01-30T06:49:11;14.98;;;8.52;;
22843;SDS011;11588;51.178;4.852;2024-01-30T06:51:38;14.65;;;9.52;;
22843;SDS011;11588;51.178;4.852;2024-01-30T06:54:04;15.77;;;8.98;;
22843;SDS011;11588;51.178;4.852;2024-01-30T06:56:31;16.83;;;9.02;;
22843;SDS011;11588;51.178;4.852;2024-01-30T06:58:58;15.85;;;8.82;;
22843;SDS011;11588;51.178;4.852;2024-01-30T07:01:29;16.13;;;8.10;;
22843;SDS011;11588;51.178;4.852;2024-01-30T07:03:58;16.13;;;8.77;;
22843;SDS011;11588;51.178;4.852;2024-01-30T07:06:25;17.60;;;9.65;;
22843;SDS011;11588;51.178;4.852;2024-01-30T07:08:52;14.57;;;8.52;;
22843;SDS011;11588;51.178;4.852;2024-01-30T07:11:19;16.88;;;8.80;;
22843;SDS011;11588;51.178;4.852;2024-01-30T07:13:45;22.02;;;9.20;;
22843;SDS011;11588;51.178;4.852;2024-01-30T07:16:13;15.27;;;8.55;;
22843;SDS011;11588;51.178;4.852;2024-01-30T07:18:40;16.10;;;9.18;;
22843;SDS011;11588;51.178;4.852;2024-01-30T07:21:06;17.65;;;8.95;;
22843;SDS011;11588;51.178;4.852;2024-01-30T07:23:33;17.65;;;8.82;;
22843;SDS011;11588;51.178;4.852;2024-01-30T07:26:01;17.33;;;9.00;;
22843;SDS011;11588;51.178;4.852;2024-01-30T07:28:27;15.98;;;8.70;;
22843;SDS011;11588;51.178;4.852;2024-01-30T07:30:54;16.55;;;8.70;;
22843;SDS011;11588;51.178;4.852;2024-01-30T07:33:21;17.73;;;8.60;;
22843;SDS011;11588;51.178;4.852;2024-01-30T07:35:48;17.50;;;10.00;;
22843;SDS011;11588;51.178;4.852;2024-01-30T07:38:14;16.77;;;9.48;;
22843;SDS011;11588;51.178;4.852;2024-01-30T07:40:41;16.23;;;9.25;;
22843;SDS011;11588;51.178;4.852;2024-01-30T07:43:08;16.55;;;8.65;;
22843;SDS011;11588;51.178;4.852;2024-01-30T07:45:34;15.82;;;9.02;;
22843;SDS011;11588;51.178;4.852;2024-01-30T07:48:01;14.00;;;8.60;;
22843;SDS011;11588;51.178;4.852;2024-01-30T07:50:27;13.43;;;8.57;;
22843;SDS011;11588;51.178;4.852;2024-01-30T07:52:55;14.50;;;8.82;;
22843;SDS011;11588;51.178;4.852;2024-01-30T07:55:23;14.57;;;8.57;;
22843;SDS011;11588;51.178;4.852;2024-01-30T07:57:52;20.57;;;9.30;;
22843;SDS011;11588;51.178;4.852;2024-01-30T08:00:19;19.50;;;9.18;;
22843;SDS011;11588;51.178;4.852;2024-01-30T08:02:46;18.50;;;8.85;;
22843;SDS011;11588;51.178;4.852;2024-01-30T08:05:12;14.13;;;8.40;;
22843;SDS011;11588;51.178;4.852;2024-01-30T08:07:41;14.55;;;8.70;;
22843;SDS011;11588;51.178;4.852;2024-01-30T08:10:10;16.00;;;9.10;;
22843;SDS011;11588;51.178;4.852;2024-01-30T08:12:37;16.13;;;9.20;;
22843;SDS011;11588;51.178;4.852;2024-01-30T08:15:04;14.27;;;9.20;;
22843;SDS011;11588;51.178;4.852;2024-01-30T08:17:31;15.90;;;8.93;;
22843;SDS011;11588;51.178;4.852;2024-01-30T08:19:57;12.25;;;7.97;;
22843;SDS011;11588;51.178;4.852;2024-01-30T08:22:24;12.77;;;8.35;;
22843;SDS011;11588;51.178;4.852;2024-01-30T08:24:50;17.95;;;8.90;;
22843;SDS011;11588;51.178;4.852;2024-01-30T08:27:17;14.57;;;8.80;;
22843;SDS011;11588;51.178;4.852;2024-01-30T08:29:44;14.82;;;8.27;;
22843;SDS011;11588;51.178;4.852;2024-01-30T08:32:11;13.23;;;7.93;;
22843;SDS011;11588;51.178;4.852;2024-01-30T08:34:37;14.48;;;8.45;;
22843;SDS011;11588;51.178;4.852;2024-01-30T08:37:04;18.67;;;8.60;;
22843;SDS011;11588;51.178;4.852;2024-01-30T08:39:31;12.90;;;8.15;;
22843;SDS011;11588;51.178;4.852;2024-01-30T08:41:57;13.73;;;8.57;;
22843;SDS011;11588;51.178;4.852;2024-01-30T08:44:24;14.30;;;8.00;;
22843;SDS011;11588;51.178;4.852;2024-01-30T08:46:50;13.55;;;7.97;;
22843;SDS011;11588;51.178;4.852;2024-01-30T08:49:17;16.00;;;8.02;;
22843;SDS011;11588;51.178;4.852;2024-01-30T08:51:44;14.55;;;8.55;;
22843;SDS011;11588;51.178;4.852;2024-01-30T08:54:10;13.88;;;8.60;;
22843;SDS011;11588;51.178;4.852;2024-01-30T08:56:37;16.50;;;9.05;;
22843;SDS011;11588;51.178;4.852;2024-01-30T08:59:04;15.70;;;8.32;;
22843;SDS011;11588;51.178;4.852;2024-01-30T09:01:30;16.25;;;8.60;;
22843;SDS011;11588;51.178;4.852;2024-01-30T09:03:57;16.88;;;8.70;;
22843;SDS011;11588;51.178;4.852;2024-01-30T09:06:24;20.13;;;9.40;;
22843;SDS011;11588;51.178;4.852;2024-01-30T09:08:52;19.52;;;8.85;;
22843;SDS011;11588;51.178;4.852;2024-01-30T09:11:19;17.15;;;8.93;;
22843;SDS011;11588;51.178;4.852;2024-01-30T09:13:45;14.43;;;9.27;;
22843;SDS011;11588;51.178;4.852;2024-01-30T09:16:12;16.00;;;8.93;;
22843;SDS011;11588;51.178;4.852;2024-01-30T09:18:39;15.63;;;9.77;;
22843;SDS011;11588;51.178;4.852;2024-01-30T09:21:05;14.95;;;9.27;;
22843;SDS011;11588;51.178;4.852;2024-01-30T09:23:32;15.13;;;9.40;;
22843;SDS011;11588;51.178;4.852;2024-01-30T09:25:59;17.77;;;9.63;;
22843;SDS011;11588;51.178;4.852;2024-01-30T09:28:26;18.48;;;9.82;;
22843;SDS011;11588;51.178;4.852;2024-01-30T09:30:55;17.50;;;9.88;;
22843;SDS011;11588;51.178;4.852;2024-01-30T09:33:22;16.40;;;9.77;;
22843;SDS011;11588;51.178;4.852;2024-01-30T09:35:48;15.10;;;9.73;;
22843;SDS011;11588;51.178;4.852;2024-01-30T09:38:15;16.80;;;9.95;;
22843;SDS011;11588;51.178;4.852;2024-01-30T09:40:41;19.40;;;9.93;;
22843;SDS011;11588;51.178;4.852;2024-01-30T09:43:08;18.08;;;10.68;;
22843;SDS011;11588;51.178;4.852;2024-01-30T09:45:37;20.42;;;10.88;;
22843;SDS011;11588;51.178;4.852;2024-01-30T09:48:04;19.95;;;11.05;;
22843;SDS011;11588;51.178;4.852;2024-01-30T09:50:31;18.77;;;10.43;;
22843;SDS011;11588;51.178;4.852;2024-01-30T09:52:58;21.48;;;11.07;;
22843;SDS011;11588;51.178;4.852;2024-01-30T09:55:25;19.65;;;11.52;;
22843;SDS011;11588;51.178;4.852;2024-01-30T09:57:52;20.30;;;11.65;;
22843;SDS011;11588;51.178;4.852;2024-01-30T10:00:19;15.27;;;10.02;;
22843;SDS011;11588;51.178;4.852;2024-01-30T10:02:46;21.42;;;10.48;;
22843;SDS011;11588;51.178;4.852;2024-01-30T10:05:14;20.23;;;11.00;;
22843;SDS011;11588;51.178;4.852;2024-01-30T10:07:49;17.73;;;11.10;;
22843;SDS011;11588;51.178;4.852;2024-01-30T10:10:18;16.52;;;11.35;;
22843;SDS011;11588;51.178;4.852;2024-01-30T10:12:45;19.08;;;11.32;;
22843;SDS011;11588;51.178;4.852;2024-01-30T10:15:11;19.75;;;12.00;;
22843;SDS011;11588;51.178;4.852;2024-01-30T10:17:39;21.42;;;12.05;;
22843;SDS011;11588;51.178;4.852;2024-01-30T10:20:06;20.75;;;11.40;;
22843;SDS011;11588;51.178;4.852;2024-01-30T10:22:34;18.38;;;11.88;;
22843;SDS011;11588;51.178;4.852;2024-01-30T10:25:00;19.27;;;11.38;;
22843;SDS011;11588;51.178;4.852;2024-01-30T10:27:27;20.45;;;10.90;;
22843;SDS011;11588;51.178;4.852;2024-01-30T10:29:55;20.83;;;10.77;;
22843;SDS011;11588;51.178;4.852;2024-01-30T10:32:22;16.45;;;8.43;;
22843;SDS011;11588;51.178;4.852;2024-01-30T10:34:48;18.52;;;7.78;;
22843;SDS011;11588;51.178;4.852;2024-01-30T10:37:15;12.18;;;7.00;;
22843;SDS011;11588;51.178;4.852;2024-01-30T10:39:43;14.48;;;6.82;;
22843;SDS011;11588;51.178;4.852;2024-01-30T10:42:11;15.57;;;6.03;;
22843;SDS011;11588;51.178;4.852;2024-01-30T10:44:48;14.52;;;6.13;;
22843;SDS011;11588;51.178;4.852;2024-01-30T10:47:26;6.68;;;4.30;;
22843;SDS011;11588;51.178;4.852;2024-01-30T10:49:55;8.20;;;3.47;;
22843;SDS011;11588;51.178;4.852;2024-01-30T10:52:23;11.40;;;3.50;;
22843;SDS011;11588;51.178;4.852;2024-01-30T10:54:52;6.72;;;2.65;;
22843;SDS011;11588;51.178;4.852;2024-01-30T10:57:18;4.90;;;2.00;;
22843;SDS011;11588;51.178;4.852;2024-01-30T10:59:45;5.43;;;2.08;;
22843;SDS011;11588;51.178;4.852;2024-01-30T11:02:13;4.18;;;1.60;;
22843;SDS011;11588;51.178;4.852;2024-01-30T11:04:41;7.10;;;1.70;;
22843;SDS011;11588;51.178;4.852;2024-01-30T11:12:22;3.88;;;1.33;;
22843;SDS011;11588;51.178;4.852;2024-01-30T11:17:28;6.13;;;1.40;;
22843;SDS011;11588;51.178;4.852;2024-01-30T11:19:55;3.38;;;1.30;;
22843;SDS011;11588;51.178;4.852;2024-01-30T11:22:21;2.70;;;1.05;;
22843;SDS011;11588;51.178;4.852;2024-01-30T11:24:48;8.82;;;2.03;;
22843;SDS011;11588;51.178;4.852;2024-01-30T11:27:16;5.22;;;1.45;;
22843;SDS011;11588;51.178;4.852;2024-01-30T11:29:43;3.40;;;1.08;;
22843;SDS011;11588;51.178;4.852;2024-01-30T11:32:09;5.78;;;1.13;;
22843;SDS011;11588;51.178;4.852;2024-01-30T11:34:36;2.50;;;0.75;;
22843;SDS011;11588;51.178;4.852;2024-01-30T11:37:09;9.77;;;1.23;;
22843;SDS011;11588;51.178;4.852;2024-01-30T11:39:36;5.28;;;1.40;;
22843;SDS011;11588;51.178;4.852;2024-01-30T11:42:04;7.00;;;1.40;;
22843;SDS011;11588;51.178;4.852;2024-01-30T11:44:31;5.85;;;1.20;;
22843;SDS011;11588;51.178;4.852;2024-01-30T11:46:58;3.13;;;1.10;;
22843;SDS011;11588;51.178;4.852;2024-01-30T11:49:25;3.22;;;0.75;;
22843;SDS011;11588;51.178;4.852;2024-01-30T11:51:52;6.00;;;0.93;;
22843;SDS011;11588;51.178;4.852;2024-01-30T11:54:20;3.63;;;0.80;;
22843;SDS011;11588;51.178;4.852;2024-01-30T11:56:46;5.93;;;0.93;;
22843;SDS011;11588;51.178;4.852;2024-01-30T11:59:13;4.60;;;1.00;;
22843;SDS011;11588;51.178;4.852;2024-01-30T12:01:40;2.95;;;0.90;;
22843;SDS011;11588;51.178;4.852;2024-01-30T12:04:07;3.75;;;0.90;;
22843;SDS011;11588;51.178;4.852;2024-01-30T12:06:35;4.30;;;0.73;;
22843;SDS011;11588;51.178;4.852;2024-01-30T12:09:03;6.03;;;0.88;;
22843;SDS011;11588;51.178;4.852;2024-01-30T12:11:30;6.10;;;1.00;;
22843;SDS011;11588;51.178;4.852;2024-01-30T12:13:58;6.85;;;1.25;;
22843;SDS011;11588;51.178;4.852;2024-01-30T12:16:25;8.48;;;1.70;;
22843;SDS011;11588;51.178;4.852;2024-01-30T12:18:59;6.63;;;1.00;;
22843;SDS011;11588;51.178;4.852;2024-01-30T12:21:28;4.65;;;0.80;;
22843;SDS011;11588;51.178;4.852;2024-01-30T12:23:56;3.83;;;0.90;;
22843;SDS011;11588;51.178;4.852;2024-01-30T12:26:24;7.95;;;0.90;;
22843;SDS011;11588;51.178;4.852;2024-01-30T12:28:55;6.22;;;1.10;;
22843;SDS011;11588;51.178;4.852;2024-01-30T12:31:26;3.22;;;0.90;;
22843;SDS011;11588;51.178;4.852;2024-01-30T12:33:54;6.22;;;0.95;;
22843;SDS011;11588;51.178;4.852;2024-01-30T12:36:21;2.08;;;0.88;;
22843;SDS011;11588;51.178;4.852;2024-01-30T12:38:48;6.85;;;0.90;;
22843;SDS011;11588;51.178;4.852;2024-01-30T12:41:15;5.80;;;1.10;;
22843;SDS011;11588;51.178;4.852;2024-01-30T12:43:42;5.32;;;1.27;;
22843;SDS011;11588;51.178;4.852;2024-01-30T12:46:09;6.03;;;1.20;;
22843;SDS011;11588;51.178;4.852;2024-01-30T12:48:36;3.35;;;0.90;;
22843;SDS011;11588;51.178;4.852;2024-01-30T12:51:02;4.40;;;1.00;;
22843;SDS011;11588;51.178;4.852;2024-01-30T12:53:29;7.55;;;1.15;;
22843;SDS011;11588;51.178;4.852;2024-01-30T12:55:57;6.00;;;0.93;;
22843;SDS011;11588;51.178;4.852;2024-01-30T12:58:24;4.05;;;1.17;;
22843;SDS011;11588;51.178;4.852;2024-01-30T13:00:50;4.90;;;1.27;;
22843;SDS011;11588;51.178;4.852;2024-01-30T13:03:17;4.70;;;1.23;;
22843;SDS011;11588;51.178;4.852;2024-01-30T13:05:43;6.30;;;1.20;;
22843;SDS011;11588;51.178;4.852;2024-01-30T13:08:10;7.93;;;1.38;;
22843;SDS011;11588;51.178;4.852;2024-01-30T13:10:37;4.85;;;1.38;;
22843;SDS011;11588;51.178;4.852;2024-01-30T13:13:04;2.92;;;1.40;;
22843;SDS011;11588;51.178;4.852;2024-01-30T13:15:30;6.97;;;1.77;;
22843;SDS011;11588;51.178;4.852;2024-01-30T13:17:59;4.72;;;2.10;;
22843;SDS011;11588;51.178;4.852;2024-01-30T13:20:26;4.00;;;1.38;;
22843;SDS011;11588;51.178;4.852;2024-01-30T13:22:53;8.38;;;1.67;;
22843;SDS011;11588;51.178;4.852;2024-01-30T13:25:20;13.35;;;1.83;;
22843;SDS011;11588;51.178;4.852;2024-01-30T13:27:46;8.00;;;1.23;;
22843;SDS011;11588;51.178;4.852;2024-01-30T13:30:13;7.32;;;1.50;;
22843;SDS011;11588;51.178;4.852;2024-01-30T13:32:40;8.85;;;1.25;;
22843;SDS011;11588;51.178;4.852;2024-01-30T13:35:13;4.82;;;1.65;;
22843;SDS011;11588;51.178;4.852;2024-01-30T13:37:39;4.88;;;1.60;;
22843;SDS011;11588;51.178;4.852;2024-01-30T13:40:08;6.32;;;1.38;;
22843;SDS011;11588;51.178;4.852;2024-01-30T13:42:36;6.32;;;1.40;;
22843;SDS011;11588;51.178;4.852;2024-01-30T13:45:03;6.32;;;1.13;;
22843;SDS011;11588;51.178;4.852;2024-01-30T13:47:30;5.60;;;1.10;;
22843;SDS011;11588;51.178;4.852;2024-01-30T13:49:59;5.38;;;1.30;;
22843;SDS011;11588;51.178;4.852;2024-01-30T13:52:26;11.15;;;1.73;;
22843;SDS011;11588;51.178;4.852;2024-01-30T13:54:53;8.38;;;1.27;;
22843;SDS011;11588;51.178;4.852;2024-01-30T13:57:20;9.50;;;1.50;;
22843;SDS011;11588;51.178;4.852;2024-01-30T13:59:47;8.18;;;1.20;;
22843;SDS011;11588;51.178;4.852;2024-01-30T14:02:17;7.00;;;1.27;;
22843;SDS011;11588;51.178;4.852;2024-01-30T14:04:43;3.97;;;1.20;;
22843;SDS011;11588;51.178;4.852;2024-01-30T14:07:10;6.82;;;1.67;;
22843;SDS011;11588;51.178;4.852;2024-01-30T14:09:37;6.55;;;1.77;;
22843;SDS011;11588;51.178;4.852;2024-01-30T14:12:03;6.90;;;1.25;;
22843;SDS011;11588;51.178;4.852;2024-01-30T14:14:30;10.95;;;2.17;;
22843;SDS011;11588;51.178;4.852;2024-01-30T14:16:59;9.90;;;2.55;;
22843;SDS011;11588;51.178;4.852;2024-01-30T14:19:26;6.13;;;1.63;;
22843;SDS011;11588;51.178;4.852;2024-01-30T14:21:53;7.72;;;2.95;;
22843;SDS011;11588;51.178;4.852;2024-01-30T14:24:20;8.63;;;3.00;;
22843;SDS011;11588;51.178;4.852;2024-01-30T14:26:46;7.60;;;2.60;;
22843;SDS011;11588;51.178;4.852;2024-01-30T14:29:14;8.98;;;1.70;;
22843;SDS011;11588;51.178;4.852;2024-01-30T14:31:40;8.23;;;3.03;;
22843;SDS011;11588;51.178;4.852;2024-01-30T14:34:07;6.32;;;2.72;;
22843;SDS011;11588;51.178;4.852;2024-01-30T14:36:35;6.15;;;1.85;;
22843;SDS011;11588;51.178;4.852;2024-01-30T14:39:01;7.97;;;1.90;;
22843;SDS011;11588;51.178;4.852;2024-01-30T14:41:29;6.38;;;1.83;;
22843;SDS011;11588;51.178;4.852;2024-01-30T14:43:56;7.88;;;1.95;;